sensor_id;sensor_type;location;lat;lon;timestamp;pressure;altitude;pressure_sealevel;temperature;humidity
35716;BME280;21840;44.920;8.616;2023-03-20T00:02:24;100684.72;;;15.60;56.10
35716;BME280;21840;44.920;8.616;2023-03-20T00:04:49;100686.34;;;15.53;56.56
35716;BME280;21840;44.920;8.616;2023-03-20T00:07:15;100681.00;;;15.79;55.75
35716;BME280;21840;44.920;8.616;2023-03-20T00:09:40;100684.53;;;16.04;55.07
35716;BME280;21840;44.920;8.616;2023-03-20T00:12:11;100682.91;;;16.11;54.22
35716;BME280;21840;44.920;8.616;2023-03-20T00:14:40;100690.00;;;16.03;54.58
35716;BME280;21840;44.920;8.616;2023-03-20T00:17:16;100692.00;;;16.09;54.62
35716;BME280;21840;44.920;8.616;2023-03-20T00:19:44;100684.56;;;16.21;54.02
35716;BME280;21840;44.920;8.616;2023-03-20T00:22:10;100687.28;;;15.78;54.33
35716;BME280;21840;44.920;8.616;2023-03-20T00:24:36;100684.13;;;15.74;54.64
35716;BME280;21840;44.920;8.616;2023-03-20T00:27:03;100682.63;;;15.72;54.74
35716;BME280;21840;44.920;8.616;2023-03-20T00:29:30;100678.34;;;15.79;54.77
35716;BME280;21840;44.920;8.616;2023-03-20T00:31:57;100682.63;;;15.72;55.01
35716;BME280;21840;44.920;8.616;2023-03-20T00:34:25;100682.03;;;15.94;54.68
35716;BME280;21840;44.920;8.616;2023-03-20T00:36:52;100683.66;;;15.87;54.55
35716;BME280;21840;44.920;8.616;2023-03-20T00:39:18;100685.38;;;15.62;55.22
35716;BME280;21840;44.920;8.616;2023-03-20T00:41:55;100681.81;;;15.80;55.13
35716;BME280;21840;44.920;8.616;2023-03-20T00:46:54;100684.44;;;15.71;55.12
35716;BME280;21840;44.920;8.616;2023-03-20T00:49:24;100687.75;;;15.39;56.13
35716;BME280;21840;44.920;8.616;2023-03-20T00:51:51;100679.22;;;15.45;56.12
35716;BME280;21840;44.920;8.616;2023-03-20T00:54:16;100684.44;;;15.71;55.65
35716;BME280;21840;44.920;8.616;2023-03-20T00:56:59;100684.56;;;15.27;56.55
35716;BME280;21840;44.920;8.616;2023-03-20T00:59:29;100683.28;;;15.40;56.24
35716;BME280;21840;44.920;8.616;2023-03-20T01:01:55;100675.59;;;15.54;55.83
35716;BME280;21840;44.920;8.616;2023-03-20T01:04:21;100685.75;;;15.33;56.15
35716;BME280;21840;44.920;8.616;2023-03-20T01:06:47;100683.47;;;15.38;56.17
35716;BME280;21840;44.920;8.616;2023-03-20T01:09:12;100684.44;;;15.37;56.40
35716;BME280;21840;44.920;8.616;2023-03-20T01:11:38;100682.16;;;15.42;56.36
35716;BME280;21840;44.920;8.616;2023-03-20T01:14:12;100684.75;;;15.34;56.35
35716;BME280;21840;44.920;8.616;2023-03-20T01:16:39;100681.97;;;15.36;56.54
35716;BME280;21840;44.920;8.616;2023-03-20T01:19:05;100681.97;;;15.09;56.95
35716;BME280;21840;44.920;8.616;2023-03-20T01:21:30;100686.22;;;15.28;56.47
35716;BME280;21840;44.920;8.616;2023-03-20T01:23:56;100692.91;;;15.41;56.28
35716;BME280;21840;44.920;8.616;2023-03-20T01:28:58;100684.88;;;15.24;56.56
35716;BME280;21840;44.920;8.616;2023-03-20T01:31:25;100685.34;;;14.94;57.32
35716;BME280;21840;44.920;8.616;2023-03-20T01:33:50;100679.72;;;14.88;56.80
35716;BME280;21840;44.920;8.616;2023-03-20T01:36:20;100669.69;;;14.74;57.22
35716;BME280;21840;44.920;8.616;2023-03-20T01:38:54;100668.94;;;15.08;56.30
35716;BME280;21840;44.920;8.616;2023-03-20T01:41:23;100666.03;;;14.93;56.19
35716;BME280;21840;44.920;8.616;2023-03-20T01:43:49;100671.56;;;14.82;55.94
35716;BME280;21840;44.920;8.616;2023-03-20T01:46:27;100663.53;;;14.65;55.05
35716;BME280;21840;44.920;8.616;2023-03-20T01:51:58;100657.94;;;14.51;54.90
35716;BME280;21840;44.920;8.616;2023-03-20T01:54:29;100654.81;;;14.37;54.92
35716;BME280;21840;44.920;8.616;2023-03-20T01:57:14;100664.50;;;14.11;55.53
35716;BME280;21840;44.920;8.616;2023-03-20T01:59:47;100658.50;;;13.73;57.03
35716;BME280;21840;44.920;8.616;2023-03-20T02:02:23;100656.22;;;14.06;56.21
35716;BME280;21840;44.920;8.616;2023-03-20T02:04:55;100647.91;;;14.00;56.38
35716;BME280;21840;44.920;8.616;2023-03-20T02:07:21;100640.06;;;14.09;55.51
35716;BME280;21840;44.920;8.616;2023-03-20T02:09:56;100650.31;;;14.12;55.40
35716;BME280;21840;44.920;8.616;2023-03-20T02:12:34;100644.66;;;14.07;55.18
35716;BME280;21840;44.920;8.616;2023-03-20T02:15:03;100636.34;;;13.84;56.00
35716;BME280;21840;44.920;8.616;2023-03-20T02:17:52;100632.97;;;13.91;55.76
35716;BME280;21840;44.920;8.616;2023-03-20T02:20:49;100639.50;;;13.87;55.71
35716;BME280;21840;44.920;8.616;2023-03-20T02:37:32;100628.09;;;13.69;56.10
35716;BME280;21840;44.920;8.616;2023-03-20T02:55:38;100634.47;;;13.48;56.83
35716;BME280;21840;44.920;8.616;2023-03-20T02:58:15;100627.53;;;13.10;57.84
35716;BME280;21840;44.920;8.616;2023-03-20T03:01:12;100625.09;;;13.26;56.65
35716;BME280;21840;44.920;8.616;2023-03-20T03:03:55;100629.88;;;13.13;56.99
35716;BME280;21840;44.920;8.616;2023-03-20T03:06:26;100624.25;;;12.98;57.16
35716;BME280;21840;44.920;8.616;2023-03-20T03:11:40;100634.50;;;13.01;56.91
35716;BME280;21840;44.920;8.616;2023-03-20T03:14:16;100637.31;;;12.80;57.32
35716;BME280;21840;44.920;8.616;2023-03-20T03:16:45;100634.63;;;13.00;56.86
35716;BME280;21840;44.920;8.616;2023-03-20T03:19:15;100630.00;;;12.74;57.37
35716;BME280;21840;44.920;8.616;2023-03-20T03:21:44;100636.59;;;12.88;57.44
35716;BME280;21840;44.920;8.616;2023-03-20T03:26:58;100633.41;;;12.94;55.88
35716;BME280;21840;44.920;8.616;2023-03-20T03:29:25;100631.56;;;13.04;55.86
35716;BME280;21840;44.920;8.616;2023-03-20T03:31:53;100641.25;;;12.66;56.49
35716;BME280;21840;44.920;8.616;2023-03-20T03:34:21;100643.78;;;12.19;57.06
35716;BME280;21840;44.920;8.616;2023-03-20T03:40:04;100656.19;;;11.88;58.55
35716;BME280;21840;44.920;8.616;2023-03-20T03:42:46;100648.91;;;12.11;57.92
35716;BME280;21840;44.920;8.616;2023-03-20T03:45:24;100656.94;;;12.09;57.45
35716;BME280;21840;44.920;8.616;2023-03-20T03:47:55;100659.03;;;12.06;57.73
35716;BME280;21840;44.920;8.616;2023-03-20T03:50:53;100650.25;;;11.86;57.75
35716;BME280;21840;44.920;8.616;2023-03-20T03:53:23;100647.66;;;12.15;57.43
35716;BME280;21840;44.920;8.616;2023-03-20T03:55:59;100655.53;;;12.15;57.15
35716;BME280;21840;44.920;8.616;2023-03-20T03:58:29;100655.69;;;12.14;57.36
35716;BME280;21840;44.920;8.616;2023-03-20T04:00:57;100662.09;;;12.21;57.02
35716;BME280;21840;44.920;8.616;2023-03-20T04:03:28;100662.81;;;11.82;58.70
35716;BME280;21840;44.920;8.616;2023-03-20T04:05:56;100656.66;;;11.53;59.23
35716;BME280;21840;44.920;8.616;2023-03-20T04:08:22;100661.91;;;11.53;59.47
35716;BME280;21840;44.920;8.616;2023-03-20T04:10:48;100667.84;;;11.45;59.67
35716;BME280;21840;44.920;8.616;2023-03-20T04:13:13;100666.72;;;11.48;59.63
35716;BME280;21840;44.920;8.616;2023-03-20T04:15:41;100673.25;;;11.43;59.95
35716;BME280;21840;44.920;8.616;2023-03-20T04:18:13;100674.34;;;11.41;59.78
35716;BME280;21840;44.920;8.616;2023-03-20T04:20:39;100679.97;;;11.77;59.05
35716;BME280;21840;44.920;8.616;2023-03-20T04:23:05;100674.78;;;11.86;58.66
35716;BME280;21840;44.920;8.616;2023-03-20T04:25:31;100671.16;;;11.87;58.73
35716;BME280;21840;44.920;8.616;2023-03-20T04:27:57;100668.44;;;11.58;58.66
35716;BME280;21840;44.920;8.616;2023-03-20T04:30:34;100680.22;;;11.64;58.86
35716;BME280;21840;44.920;8.616;2023-03-20T04:33:26;100686.28;;;11.55;58.77
35716;BME280;21840;44.920;8.616;2023-03-20T04:36:03;100682.91;;;11.43;59.01
35716;BME280;21840;44.920;8.616;2023-03-20T04:38:29;100689.00;;;11.84;58.07
35716;BME280;21840;44.920;8.616;2023-03-20T04:40:54;100686.22;;;11.76;58.38
35716;BME280;21840;44.920;8.616;2023-03-20T04:43:20;100680.88;;;11.87;57.75
35716;BME280;21840;44.920;8.616;2023-03-20T04:45:46;100689.41;;;11.79;57.96
35716;BME280;21840;44.920;8.616;2023-03-20T04:48:12;100682.69;;;11.65;58.23
35716;BME280;21840;44.920;8.616;2023-03-20T04:50:38;100683.13;;;12.01;57.29
35716;BME280;21840;44.920;8.616;2023-03-20T04:53:04;100690.31;;;11.99;57.30
35716;BME280;21840;44.920;8.616;2023-03-20T04:55:30;100685.19;;;12.17;57.03
35716;BME280;21840;44.920;8.616;2023-03-20T04:57:56;100680.28;;;11.83;57.64
35716;BME280;21840;44.920;8.616;2023-03-20T05:00:22;100682.69;;;11.96;57.12
35716;BME280;21840;44.920;8.616;2023-03-20T05:02:49;100682.84;;;12.14;56.78
35716;BME280;21840;44.920;8.616;2023-03-20T05:05:15;100679.75;;;11.90;57.34
35716;BME280;21840;44.920;8.616;2023-03-20T05:07:41;100673.16;;;12.24;56.71
35716;BME280;21840;44.920;8.616;2023-03-20T05:10:09;100686.16;;;12.06;56.71
35716;BME280;21840;44.920;8.616;2023-03-20T05:12:44;100680.63;;;12.09;56.99
35716;BME280;21840;44.920;8.616;2023-03-20T05:15:34;100701.81;;;12.08;57.26
35716;BME280;21840;44.920;8.616;2023-03-20T05:18:19;100695.03;;;11.96;56.76
35716;BME280;21840;44.920;8.616;2023-03-20T05:21:06;100703.78;;;12.16;56.02
35716;BME280;21840;44.920;8.616;2023-03-20T05:23:50;100710.31;;;12.31;55.88
35716;BME280;21840;44.920;8.616;2023-03-20T05:26:35;100699.09;;;11.79;56.55
35716;BME280;21840;44.920;8.616;2023-03-20T05:29:25;100709.84;;;11.97;56.45
35716;BME280;21840;44.920;8.616;2023-03-20T05:32:10;100709.88;;;11.66;57.31
35716;BME280;21840;44.920;8.616;2023-03-20T05:34:45;100714.44;;;12.14;56.29
35716;BME280;21840;44.920;8.616;2023-03-20T05:37:19;100710.81;;;12.15;56.44
35716;BME280;21840;44.920;8.616;2023-03-20T05:40:01;100720.69;;;12.33;55.87
35716;BME280;21840;44.920;8.616;2023-03-20T05:42:58;100728.16;;;12.27;55.79
35716;BME280;21840;44.920;8.616;2023-03-20T05:45:36;100730.13;;;12.16;56.09
35716;BME280;21840;44.920;8.616;2023-03-20T05:48:30;100743.69;;;11.80;57.31
35716;BME280;21840;44.920;8.616;2023-03-20T05:51:16;100744.63;;;12.10;57.16
35716;BME280;21840;44.920;8.616;2023-03-20T05:53:53;100748.84;;;12.42;56.21
35716;BME280;21840;44.920;8.616;2023-03-20T05:56:21;100749.38;;;12.16;56.49
35716;BME280;21840;44.920;8.616;2023-03-20T05:58:59;100753.00;;;12.44;55.72
35716;BME280;21840;44.920;8.616;2023-03-20T06:01:56;100750.91;;;12.19;55.86
35716;BME280;21840;44.920;8.616;2023-03-20T06:04:25;100752.56;;;12.20;56.15
35716;BME280;21840;44.920;8.616;2023-03-20T06:07:09;100749.66;;;12.13;56.36
35716;BME280;21840;44.920;8.616;2023-03-20T06:09:37;100747.63;;;12.46;56.15
35716;BME280;21840;44.920;8.616;2023-03-20T06:12:08;100754.09;;;12.32;55.61
35716;BME280;21840;44.920;8.616;2023-03-20T06:14:33;100760.09;;;12.73;54.88
35716;BME280;21840;44.920;8.616;2023-03-20T06:17:03;100760.22;;;12.62;55.08
35716;BME280;21840;44.920;8.616;2023-03-20T06:19:29;100768.66;;;13.04;54.59
35716;BME280;21840;44.920;8.616;2023-03-20T06:21:54;100762.84;;;13.01;54.09
35716;BME280;21840;44.920;8.616;2023-03-20T06:24:20;100762.56;;;13.04;54.55
35716;BME280;21840;44.920;8.616;2023-03-20T06:26:46;100770.72;;;13.40;54.22
35716;BME280;21840;44.920;8.616;2023-03-20T06:29:12;100766.44;;;13.09;54.56
35716;BME280;21840;44.920;8.616;2023-03-20T06:31:38;100766.56;;;13.17;54.33
35716;BME280;21840;44.920;8.616;2023-03-20T06:34:06;100767.53;;;13.16;54.58
35716;BME280;21840;44.920;8.616;2023-03-20T06:36:37;100763.00;;;13.66;53.97
35716;BME280;21840;44.920;8.616;2023-03-20T06:39:08;100762.03;;;13.57;53.80
35716;BME280;21840;44.920;8.616;2023-03-20T06:41:35;100755.19;;;13.17;54.97
35716;BME280;21840;44.920;8.616;2023-03-20T06:44:05;100759.59;;;13.46;54.30
35716;BME280;21840;44.920;8.616;2023-03-20T06:46:51;100779.25;;;13.98;54.20
35716;BME280;21840;44.920;8.616;2023-03-20T06:49:17;100772.97;;;13.99;54.73
35716;BME280;21840;44.920;8.616;2023-03-20T06:51:44;100775.47;;;13.73;55.69
35716;BME280;21840;44.920;8.616;2023-03-20T06:54:12;100789.41;;;14.21;54.22
35716;BME280;21840;44.920;8.616;2023-03-20T06:56:40;100786.06;;;14.19;53.66
35716;BME280;21840;44.920;8.616;2023-03-20T06:59:05;100787.63;;;14.39;53.18
35716;BME280;21840;44.920;8.616;2023-03-20T07:01:32;100788.22;;;14.33;53.56
35716;BME280;21840;44.920;8.616;2023-03-20T07:03:57;100793.28;;;14.44;53.22
35716;BME280;21840;44.920;8.616;2023-03-20T07:06:29;100802.41;;;14.32;54.21
35716;BME280;21840;44.920;8.616;2023-03-20T07:08:54;100804.75;;;14.35;53.92
35716;BME280;21840;44.920;8.616;2023-03-20T07:11:20;100805.34;;;14.29;54.14
35716;BME280;21840;44.920;8.616;2023-03-20T07:13:47;100803.53;;;14.48;53.61
35716;BME280;21840;44.920;8.616;2023-03-20T07:16:33;100803.13;;;14.24;54.53
35716;BME280;21840;44.920;8.616;2023-03-20T07:18:58;100802.00;;;14.27;54.39
35716;BME280;21840;44.920;8.616;2023-03-20T07:21:24;100804.66;;;14.27;54.20
35716;BME280;21840;44.920;8.616;2023-03-20T07:23:50;100808.97;;;14.00;55.11
35716;BME280;21840;44.920;8.616;2023-03-20T07:26:17;100804.09;;;14.06;54.42
35716;BME280;21840;44.920;8.616;2023-03-20T07:28:43;100800.81;;;14.21;54.47
35716;BME280;21840;44.920;8.616;2023-03-20T07:31:23;100809.28;;;13.88;55.27
35716;BME280;21840;44.920;8.616;2023-03-20T07:33:56;100810.34;;;14.05;55.18
35716;BME280;21840;44.920;8.616;2023-03-20T07:36:22;100806.81;;;14.14;54.87
35716;BME280;21840;44.920;8.616;2023-03-20T07:38:48;100810.78;;;14.55;53.93
35716;BME280;21840;44.920;8.616;2023-03-20T07:41:13;100813.66;;;14.07;54.96
35716;BME280;21840;44.920;8.616;2023-03-20T07:43:44;100818.13;;;14.34;54.57
35716;BME280;21840;44.920;8.616;2023-03-20T07:46:28;100814.22;;;14.38;54.55
35716;BME280;21840;44.920;8.616;2023-03-20T07:48:53;100819.00;;;14.42;54.55
35716;BME280;21840;44.920;8.616;2023-03-20T07:51:21;100823.81;;;13.74;55.63
35716;BME280;21840;44.920;8.616;2023-03-20T07:53:47;100818.94;;;14.34;54.65
35716;BME280;21840;44.920;8.616;2023-03-20T07:56:12;100823.72;;;14.49;54.21
35716;BME280;21840;44.920;8.616;2023-03-20T07:58:37;100833.34;;;14.67;53.48
35716;BME280;21840;44.920;8.616;2023-03-20T08:01:03;100838.88;;;14.74;53.75
35716;BME280;21840;44.920;8.616;2023-03-20T08:03:29;100841.00;;;14.88;53.32
35716;BME280;21840;44.920;8.616;2023-03-20T08:05:54;100840.16;;;14.70;53.50
35716;BME280;21840;44.920;8.616;2023-03-20T08:08:20;100838.72;;;14.58;53.82
35716;BME280;21840;44.920;8.616;2023-03-20T08:10:46;100837.91;;;14.75;53.18
35716;BME280;21840;44.920;8.616;2023-03-20T08:13:12;100833.75;;;14.91;52.89
35716;BME280;21840;44.920;8.616;2023-03-20T08:15:38;100839.69;;;14.57;53.74
35716;BME280;21840;44.920;8.616;2023-03-20T08:18:04;100836.59;;;14.61;53.70
35716;BME280;21840;44.920;8.616;2023-03-20T08:20:29;100828.28;;;15.10;52.58
35716;BME280;21840;44.920;8.616;2023-03-20T08:22:56;100829.59;;;15.06;52.41
35716;BME280;21840;44.920;8.616;2023-03-20T08:25:21;100827.38;;;15.19;52.39
35716;BME280;21840;44.920;8.616;2023-03-20T08:27:47;100826.78;;;14.72;53.34
35716;BME280;21840;44.920;8.616;2023-03-20T08:30:13;100835.13;;;15.13;52.88
35716;BME280;21840;44.920;8.616;2023-03-20T08:32:40;100842.19;;;15.12;52.61
35716;BME280;21840;44.920;8.616;2023-03-20T08:35:07;100839.00;;;15.26;52.16
35716;BME280;21840;44.920;8.616;2023-03-20T08:37:33;100843.56;;;15.42;51.48
35716;BME280;21840;44.920;8.616;2023-03-20T08:39:59;100853.22;;;15.69;51.04
35716;BME280;21840;44.920;8.616;2023-03-20T08:42:25;100863.03;;;15.77;51.03
35716;BME280;21840;44.920;8.616;2023-03-20T08:44:50;100862.97;;;15.43;51.57
35716;BME280;21840;44.920;8.616;2023-03-20T08:47:16;100860.69;;;15.48;51.67
35716;BME280;21840;44.920;8.616;2023-03-20T08:49:41;100871.03;;;15.67;51.25
35716;BME280;21840;44.920;8.616;2023-03-20T08:52:07;100859.81;;;15.65;51.59
35716;BME280;21840;44.920;8.616;2023-03-20T08:54:33;100866.88;;;15.39;51.42
35716;BME280;21840;44.920;8.616;2023-03-20T08:56:58;100871.16;;;14.96;52.90
35716;BME280;21840;44.920;8.616;2023-03-20T08:59:24;100870.47;;;15.12;52.92
35716;BME280;21840;44.920;8.616;2023-03-20T09:01:49;100873.25;;;14.74;53.58
35716;BME280;21840;44.920;8.616;2023-03-20T09:04:15;100867.38;;;15.16;52.87
35716;BME280;21840;44.920;8.616;2023-03-20T09:06:40;100868.03;;;15.62;51.79
35716;BME280;21840;44.920;8.616;2023-03-20T09:09:06;100879.38;;;15.28;52.27
35716;BME280;21840;44.920;8.616;2023-03-20T09:11:32;100879.22;;;15.12;52.50
35716;BME280;21840;44.920;8.616;2023-03-20T09:13:58;100877.66;;;15.63;51.78
35716;BME280;21840;44.920;8.616;2023-03-20T09:16:25;100875.44;;;15.77;51.38
35716;BME280;21840;44.920;8.616;2023-03-20T09:18:50;100876.28;;;15.77;51.26
35716;BME280;21840;44.920;8.616;2023-03-20T09:21:16;100881.63;;;16.20;50.56
35716;BME280;21840;44.920;8.616;2023-03-20T09:23:41;100879.09;;;14.78;53.28
35716;BME280;21840;44.920;8.616;2023-03-20T09:26:07;100889.72;;;15.40;52.15
35716;BME280;21840;44.920;8.616;2023-03-20T09:28:32;100885.75;;;15.18;52.48
35716;BME280;21840;44.920;8.616;2023-03-20T09:30:58;100882.09;;;15.37;52.18
35716;BME280;21840;44.920;8.616;2023-03-20T09:33:24;100877.53;;;15.91;50.91
35716;BME280;21840;44.920;8.616;2023-03-20T09:35:50;100886.09;;;15.41;52.38
35716;BME280;21840;44.920;8.616;2023-03-20T09:38:16;100888.06;;;16.09;50.83
35716;BME280;21840;44.920;8.616;2023-03-20T09:40:52;100876.97;;;16.13;50.62
35716;BME280;21840;44.920;8.616;2023-03-20T09:51:52;100865.63;;;16.29;50.56
35716;BME280;21840;44.920;8.616;2023-03-20T09:54:40;100866.06;;;16.16;50.79
35716;BME280;21840;44.920;8.616;2023-03-20T09:57:20;100863.03;;;16.03;50.96
35716;BME280;21840;44.920;8.616;2023-03-20T09:59:47;100858.59;;;16.12;50.97
35716;BME280;21840;44.920;8.616;2023-03-20T10:02:16;100850.19;;;16.75;49.32
35716;BME280;21840;44.920;8.616;2023-03-20T10:04:50;100853.00;;;16.74;49.43
35716;BME280;21840;44.920;8.616;2023-03-20T10:07:19;100849.47;;;16.06;50.72
35716;BME280;21840;44.920;8.616;2023-03-20T10:09:44;100842.91;;;16.27;50.67
35716;BME280;21840;44.920;8.616;2023-03-20T10:17:59;100840.13;;;16.95;48.74
35716;BME280;21840;44.920;8.616;2023-03-20T10:20:42;100847.56;;;17.24;48.64
35716;BME280;21840;44.920;8.616;2023-03-20T10:23:56;100837.75;;;17.50;48.04
35716;BME280;21840;44.920;8.616;2023-03-20T10:26:24;100850.06;;;17.34;48.09
35716;BME280;21840;44.920;8.616;2023-03-20T10:28:59;100842.72;;;17.69;47.53
35716;BME280;21840;44.920;8.616;2023-03-20T10:31:55;100839.25;;;17.60;47.49
35716;BME280;21840;44.920;8.616;2023-03-20T10:40:02;100823.28;;;18.24;45.93
35716;BME280;21840;44.920;8.616;2023-03-20T10:42:36;100831.84;;;18.43;45.50
35716;BME280;21840;44.920;8.616;2023-03-20T10:47:50;100824.34;;;18.07;45.86
35716;BME280;21840;44.920;8.616;2023-03-20T10:50:18;100829.78;;;18.53;45.13
35716;BME280;21840;44.920;8.616;2023-03-20T10:52:48;100828.16;;;18.75;44.70
35716;BME280;21840;44.920;8.616;2023-03-20T10:55:18;100831.34;;;18.08;45.74
35716;BME280;21840;44.920;8.616;2023-03-20T10:57:55;100824.34;;;18.15;45.96
35716;BME280;21840;44.920;8.616;2023-03-20T11:00:23;100818.50;;;18.51;44.81
35716;BME280;21840;44.920;8.616;2023-03-20T11:02:50;100834.38;;;18.67;44.66
35716;BME280;21840;44.920;8.616;2023-03-20T11:05:29;100829.59;;;18.86;44.53
35716;BME280;21840;44.920;8.616;2023-03-20T11:08:02;100835.66;;;18.80;44.71
35716;BME280;21840;44.920;8.616;2023-03-20T11:10:32;100827.09;;;18.84;44.40
35716;BME280;21840;44.920;8.616;2023-03-20T11:13:12;100829.97;;;18.83;44.64
35716;BME280;21840;44.920;8.616;2023-03-20T11:15:38;100828.38;;;18.65;45.06
35716;BME280;21840;44.920;8.616;2023-03-20T11:18:06;100815.75;;;18.36;46.40
35716;BME280;21840;44.920;8.616;2023-03-20T11:20:38;100807.41;;;18.93;44.61
35716;BME280;21840;44.920;8.616;2023-03-20T11:23:14;100813.88;;;19.52;43.18
35716;BME280;21840;44.920;8.616;2023-03-20T11:25:51;100810.31;;;19.45;43.83
35716;BME280;21840;44.920;8.616;2023-03-20T11:31:05;100815.84;;;19.88;42.42
35716;BME280;21840;44.920;8.616;2023-03-20T11:33:36;100807.06;;;20.23;42.14
35716;BME280;21840;44.920;8.616;2023-03-20T11:36:19;100807.28;;;20.43;41.27
35716;BME280;21840;44.920;8.616;2023-03-20T11:38:46;100804.88;;;20.48;41.36
35716;BME280;21840;44.920;8.616;2023-03-20T11:41:25;100796.22;;;20.83;41.17
35716;BME280;21840;44.920;8.616;2023-03-20T11:43:51;100793.25;;;21.21;40.40
35716;BME280;21840;44.920;8.616;2023-03-20T11:46:18;100797.22;;;21.03;40.48
35716;BME280;21840;44.920;8.616;2023-03-20T11:48:46;100790.34;;;21.16;40.53
35716;BME280;21840;44.920;8.616;2023-03-20T11:51:17;100785.06;;;21.01;40.44
35716;BME280;21840;44.920;8.616;2023-03-20T11:56:19;100768.56;;;20.69;40.95
35716;BME280;21840;44.920;8.616;2023-03-20T11:58:56;100769.66;;;20.17;42.15
35716;BME280;21840;44.920;8.616;2023-03-20T12:01:23;100765.13;;;19.81;42.62
35716;BME280;21840;44.920;8.616;2023-03-20T12:06:35;100753.78;;;19.49;44.26
35716;BME280;21840;44.920;8.616;2023-03-20T12:09:06;100751.22;;;19.41;44.16
35716;BME280;21840;44.920;8.616;2023-03-20T12:11:55;100744.53;;;19.45;44.11
35716;BME280;21840;44.920;8.616;2023-03-20T12:14:52;100749.66;;;19.47;44.38
35716;BME280;21840;44.920;8.616;2023-03-20T12:17:37;100742.31;;;19.34;45.05
35716;BME280;21840;44.920;8.616;2023-03-20T12:28:28;100733.59;;;19.40;44.79
35716;BME280;21840;44.920;8.616;2023-03-20T12:31:04;100726.59;;;19.39;45.01
35716;BME280;21840;44.920;8.616;2023-03-20T12:36:15;100719.53;;;19.46;44.78
35716;BME280;21840;44.920;8.616;2023-03-20T12:38:42;100706.97;;;19.40;45.02
35716;BME280;21840;44.920;8.616;2023-03-20T12:41:15;100703.84;;;19.22;45.21
35716;BME280;21840;44.920;8.616;2023-03-20T12:50:07;100688.72;;;19.22;46.04
35716;BME280;21840;44.920;8.616;2023-03-20T12:55:20;100681.78;;;19.57;44.92
35716;BME280;21840;44.920;8.616;2023-03-20T12:58:22;100685.28;;;19.43;45.32
35716;BME280;21840;44.920;8.616;2023-03-20T13:06:39;100676.19;;;19.82;45.15
35716;BME280;21840;44.920;8.616;2023-03-20T13:17:41;100670.94;;;20.10;45.47
35716;BME280;21840;44.920;8.616;2023-03-20T13:20:24;100669.59;;;20.21;45.65
35716;BME280;21840;44.920;8.616;2023-03-20T13:37:34;100656.31;;;20.06;45.04
35716;BME280;21840;44.920;8.616;2023-03-20T13:40:27;100655.19;;;20.15;44.84
35716;BME280;21840;44.920;8.616;2023-03-20T13:45:39;100645.47;;;20.29;44.74
35716;BME280;21840;44.920;8.616;2023-03-20T13:53:37;100643.41;;;20.53;43.77
35716;BME280;21840;44.920;8.616;2023-03-20T13:57:17;100643.25;;;20.33;43.14
35716;BME280;21840;44.920;8.616;2023-03-20T14:04:40;100649.69;;;20.66;42.08
35716;BME280;21840;44.920;8.616;2023-03-20T14:07:33;100648.25;;;20.64;42.61
35716;BME280;21840;44.920;8.616;2023-03-20T14:10:32;100641.91;;;20.65;42.87
35716;BME280;21840;44.920;8.616;2023-03-20T14:13:10;100646.25;;;20.73;43.09
35716;BME280;21840;44.920;8.616;2023-03-20T14:15:37;100643.88;;;20.84;42.15
35716;BME280;21840;44.920;8.616;2023-03-20T14:18:15;100639.94;;;20.80;42.20
35716;BME280;21840;44.920;8.616;2023-03-20T14:20:42;100638.56;;;20.84;42.21
35716;BME280;21840;44.920;8.616;2023-03-20T14:23:22;100626.72;;;21.00;41.25
35716;BME280;21840;44.920;8.616;2023-03-20T14:25:53;100627.13;;;21.04;40.48
35716;BME280;21840;44.920;8.616;2023-03-20T14:30:46;100632.19;;;20.85;40.72
35716;BME280;21840;44.920;8.616;2023-03-20T14:35:47;100630.13;;;21.22;40.70
35716;BME280;21840;44.920;8.616;2023-03-20T14:38:32;100632.63;;;21.30;40.08
35716;BME280;21840;44.920;8.616;2023-03-20T14:41:23;100626.06;;;21.33;39.27
35716;BME280;21840;44.920;8.616;2023-03-20T14:46:52;100616.28;;;21.47;37.09
35716;BME280;21840;44.920;8.616;2023-03-20T14:52:41;100621.19;;;21.43;38.52
35716;BME280;21840;44.920;8.616;2023-03-20T14:55:31;100627.84;;;21.61;37.48
35716;BME280;21840;44.920;8.616;2023-03-20T14:58:02;100623.09;;;21.56;37.45
35716;BME280;21840;44.920;8.616;2023-03-20T15:00:33;100623.69;;;21.45;36.45
35716;BME280;21840;44.920;8.616;2023-03-20T15:03:10;100614.94;;;21.78;34.77
35716;BME280;21840;44.920;8.616;2023-03-20T15:05:38;100617.19;;;21.67;36.44
35716;BME280;21840;44.920;8.616;2023-03-20T15:08:17;100612.25;;;21.78;33.47
35716;BME280;21840;44.920;8.616;2023-03-20T15:10:52;100617.16;;;21.61;35.13
35716;BME280;21840;44.920;8.616;2023-03-20T15:13:19;100609.31;;;21.52;35.18
35716;BME280;21840;44.920;8.616;2023-03-20T15:15:54;100614.63;;;21.39;34.67
35716;BME280;21840;44.920;8.616;2023-03-20T15:18:22;100614.22;;;21.49;35.04
35716;BME280;21840;44.920;8.616;2023-03-20T15:20:48;100609.16;;;21.67;34.38
35716;BME280;21840;44.920;8.616;2023-03-20T15:23:14;100610.38;;;21.71;35.04
35716;BME280;21840;44.920;8.616;2023-03-20T15:25:42;100614.31;;;21.89;34.36
35716;BME280;21840;44.920;8.616;2023-03-20T15:28:13;100611.13;;;22.27;34.60
35716;BME280;21840;44.920;8.616;2023-03-20T15:30:40;100610.69;;;22.70;33.90
35716;BME280;21840;44.920;8.616;2023-03-20T15:33:15;100608.94;;;23.09;32.81
35716;BME280;21840;44.920;8.616;2023-03-20T15:35:42;100605.75;;;23.38;31.50
35716;BME280;21840;44.920;8.616;2023-03-20T15:38:11;100613.88;;;23.63;31.13
35716;BME280;21840;44.920;8.616;2023-03-20T15:40:39;100616.13;;;24.30;29.61
35716;BME280;21840;44.920;8.616;2023-03-20T15:43:20;100612.56;;;25.23;28.10
35716;BME280;21840;44.920;8.616;2023-03-20T15:45:46;100599.22;;;26.07;27.51